Time;durP1;ratioP1;P1;durP2;ratioP2;P2;SDS_P1;SDS_P2;PMS_P1;PMS_P2;Temp;Humidity;BMP_temperature;BMP_pressure;BME280_temperature;BME280_humidity;BME280_pressure;Samples;Min_cycle;Max_cycle;Signal;HPM_P1;HPM_P2
2022/09/26 00:01:38;;;;;;;9.93;8.55;;;12.10;99.90;;;;;;5073987;28;20028;-57
2022/09/26 00:04:15;;;;;;;12.30;9.85;;;12.00;99.90;;;;;;5075218;28;20048;-56
2022/09/26 00:06:41;;;;;;;9.25;7.95;;;11.90;99.90;;;;;;5064319;28;20372;-57
2022/09/26 00:09:07;;;;;;;12.00;9.27;;;11.90;99.90;;;;;;5055200;28;20025;-58
2022/09/26 00:11:33;;;;;;;8.93;8.02;;;11.90;99.90;;;;;;5055188;28;20032;-55
2022/09/26 00:14:04;;;;;;;9.50;8.00;;;12.00;99.90;;;;;;5054833;28;20033;-56
2022/09/26 00:16:30;;;;;;;8.77;7.88;;;12.10;99.90;;;;;;5054956;28;20487;-55
2022/09/26 00:18:57;;;;;;;9.18;8.07;;;12.10;99.90;;;;;;5053555;28;20033;-55
2022/09/26 00:21:24;;;;;;;9.00;8.10;;;12.10;99.90;;;;;;5054936;28;20551;-57
2022/09/26 00:23:50;;;;;;;8.65;7.75;;;12.00;99.90;;;;;;5054702;28;20044;-53
2022/09/26 00:26:18;;;;;;;10.02;8.95;;;12.00;99.90;;;;;;5053495;28;20502;-56
2022/09/26 00:28:44;;;;;;;12.30;9.00;;;12.10;99.90;;;;;;5054799;28;20420;-57
2022/09/26 00:31:20;;;;;;;10.10;9.02;;;12.10;99.90;;;;;;5064710;28;20147;-56
2022/09/26 00:33:46;;;;;;;10.80;9.70;;;12.10;99.90;;;;;;5074637;28;20422;-55
2022/09/26 00:36:11;;;;;;;10.95;9.88;;;12.10;99.90;;;;;;5074405;28;20033;-56
2022/09/26 00:38:38;;;;;;;13.93;10.38;;;12.00;99.90;;;;;;5074547;28;20031;-55
2022/09/26 00:41:05;;;;;;;10.73;9.63;;;12.00;99.90;;;;;;5074595;28;20028;-55
2022/09/26 00:43:40;;;;;;;13.05;11.63;;;12.00;99.90;;;;;;5074471;28;20464;-55
2022/09/26 00:46:27;;;;;;;10.75;9.65;;;12.10;99.90;;;;;;5074102;28;20046;-53
2022/09/26 00:49:21;;;;;;;11.93;9.80;;;12.10;99.90;;;;;;5074265;28;20035;-56
2022/09/26 00:52:05;;;;;;;11.60;10.27;;;12.00;99.90;;;;;;5074277;28;20040;-56
2022/09/26 00:54:35;;;;;;;12.30;9.52;;;12.10;99.90;;;;;;5072558;28;20072;-55
2022/09/26 00:57:06;;;;;;;13.27;10.05;;;12.00;99.90;;;;;;5066044;28;20025;-55
2022/09/26 00:59:37;;;;;;;11.65;9.82;;;12.00;99.90;;;;;;5054167;28;20028;-56
2022/09/26 01:02:03;;;;;;;10.52;9.20;;;12.00;99.90;;;;;;5054086;28;20020;-56
2022/09/26 01:04:33;;;;;;;20.98;9.50;;;12.00;99.90;;;;;;5054205;28;20439;-56
2022/09/26 01:07:02;;;;;;;9.63;8.63;;;12.10;99.90;;;;;;5053861;28;20625;-56
2022/09/26 01:09:29;;;;;;;16.85;9.60;;;12.10;99.90;;;;;;5052759;28;20032;-55
2022/09/26 01:11:57;;;;;;;10.73;9.02;;;12.10;99.90;;;;;;5053823;28;20040;-56
2022/09/26 01:14:23;;;;;;;10.95;9.00;;;12.00;99.90;;;;;;5053938;28;20094;-56
2022/09/26 01:16:50;;;;;;;9.13;8.13;;;12.10;99.90;;;;;;5053796;28;20052;-54
2022/09/26 01:19:48;;;;;;;9.35;7.53;;;12.10;99.90;;;;;;5053854;28;20020;-57
2022/09/26 01:22:28;;;;;;;13.68;8.63;;;12.00;99.90;;;;;;5054607;28;20033;-57
2022/09/26 01:25:11;;;;;;;11.13;7.50;;;12.00;99.90;;;;;;5058954;28;20104;-57
2022/09/26 01:27:59;;;;;;;9.32;7.45;;;12.10;99.90;;;;;;5073381;28;20039;-56
2022/09/26 01:30:30;;;;;;;8.65;7.57;;;12.10;99.90;;;;;;5073719;28;20643;-57
2022/09/26 01:33:15;;;;;;;9.60;8.00;;;12.10;99.90;;;;;;5073590;28;20434;-57
2022/09/26 01:35:43;;;;;;;7.68;6.95;;;12.10;99.90;;;;;;5073141;28;20028;-57
2022/09/26 01:38:21;;;;;;;8.80;6.97;;;12.10;99.90;;;;;;5073469;28;20379;-56
2022/09/26 01:41:13;;;;;;;8.20;7.40;;;12.00;99.90;;;;;;5073268;28;20021;-57
2022/09/26 01:44:03;;;;;;;8.43;7.35;;;11.90;99.90;;;;;;5073229;28;20082;-57
2022/09/26 01:46:34;;;;;;;7.57;6.80;;;12.00;99.90;;;;;;5073350;28;20032;-54
2022/09/26 01:49:22;;;;;;;7.75;6.57;;;12.00;99.90;;;;;;5071555;28;20411;-58
2022/09/26 01:52:05;;;;;;;7.70;6.90;;;12.00;99.90;;;;;;5073098;28;20029;-55
2022/09/26 01:54:44;;;;;;;12.75;7.93;;;11.90;99.90;;;;;;5073423;28;20388;-58
2022/09/26 01:57:16;;;;;;;7.35;6.65;;;11.90;99.90;;;;;;5073192;28;20044;-55
2022/09/26 01:59:52;;;;;;;11.65;7.90;;;11.90;99.90;;;;;;5072999;28;20402;-57
2022/09/26 02:02:24;;;;;;;10.38;8.05;;;11.90;99.90;;;;;;5073145;28;20527;-54
2022/09/26 02:04:54;;;;;;;8.50;7.70;;;11.80;99.90;;;;;;5053048;28;20079;-56
2022/09/26 02:07:43;;;;;;;9.55;8.60;;;11.90;99.90;;;;;;5052608;28;20067;-56
2022/09/26 02:10:25;;;;;;;8.98;8.07;;;11.90;99.90;;;;;;5052830;28;20033;-56
2022/09/26 02:12:56;;;;;;;11.35;8.65;;;11.90;99.90;;;;;;5052640;28;20021;-58
2022/09/26 02:15:25;;;;;;;9.52;8.48;;;11.80;99.90;;;;;;5052631;28;20362;-53
2022/09/26 02:18:01;;;;;;;11.40;9.00;;;11.80;99.90;;;;;;5053760;28;20016;-58
2022/09/26 02:20:33;;;;;;;11.43;9.50;;;11.90;99.90;;;;;;5071686;28;20365;-58
2022/09/26 02:23:02;;;;;;;10.20;8.68;;;12.00;99.90;;;;;;5059585;28;20033;-58
2022/09/26 02:25:29;;;;;;;14.73;10.85;;;11.90;99.90;;;;;;5052533;28;20480;-55
2022/09/26 02:27:55;;;;;;;12.27;10.05;;;11.80;99.90;;;;;;5051141;28;20115;-56
2022/09/26 02:30:21;;;;;;;13.15;10.73;;;11.90;99.90;;;;;;5052609;28;20025;-56
2022/09/26 02:32:47;;;;;;;15.85;10.23;;;11.80;99.90;;;;;;5052407;28;20029;-56
2022/09/26 02:37:58;;;;;;;12.45;10.13;;;11.80;99.90;;;;;;5052274;28;21238;-56
2022/09/26 02:40:35;;;;;;;15.43;10.77;;;11.90;99.90;;;;;;5052397;28;20013;-55
2022/09/26 02:43:17;;;;;;;12.75;10.80;;;11.90;99.90;;;;;;5050879;28;20203;-57
2022/09/26 02:45:55;;;;;;;14.73;10.68;;;11.80;99.90;;;;;;5051995;28;20021;-55
2022/09/26 02:48:26;;;;;;;13.07;10.73;;;11.80;99.90;;;;;;5052206;28;20029;-56
2022/09/26 02:51:13;;;;;;;11.18;9.10;;;11.80;99.90;;;;;;5067440;28;20039;-56
2022/09/26 02:54:19;;;;;;;15.63;9.70;;;11.90;99.90;;;;;;5071996;28;20024;-56
2022/09/26 02:57:22;;;;;;;13.13;8.95;;;11.80;99.90;;;;;;5071241;28;20089;-57
2022/09/26 03:00:01;;;;;;;8.30;7.45;;;11.80;99.90;;;;;;5071866;28;20550;-54
2022/09/26 03:02:57;;;;;;;10.40;8.38;;;11.80;99.90;;;;;;5072055;28;20042;-57
2022/09/26 03:05:28;;;;;;;11.80;7.72;;;11.80;99.90;;;;;;5071909;28;20028;-56
2022/09/26 03:08:03;;;;;;;8.88;7.95;;;11.80;99.90;;;;;;5052325;28;20623;-56
2022/09/26 03:10:31;;;;;;;12.30;8.90;;;11.80;99.90;;;;;;5051866;28;20025;-56
2022/09/26 03:13:07;;;;;;;12.85;8.23;;;11.80;99.90;;;;;;5051682;28;20084;-57
2022/09/26 03:15:35;;;;;;;9.63;7.70;;;11.80;99.90;;;;;;5051511;28;20037;-57
2022/09/26 03:18:05;;;;;;;10.40;7.70;;;11.70;99.90;;;;;;5051414;28;20028;-55
2022/09/26 03:20:31;;;;;;;9.90;7.93;;;11.70;99.90;;;;;;5063364;28;20032;-57
2022/09/26 03:22:56;;;;;;;9.60;7.88;;;11.70;99.90;;;;;;5071637;28;20094;-56
2022/09/26 03:25:25;;;;;;;8.70;7.18;;;11.70;99.90;;;;;;5071766;28;20016;-56
2022/09/26 03:27:52;;;;;;;9.25;7.85;;;11.70;99.90;;;;;;5071282;28;20116;-54
2022/09/26 03:30:20;;;;;;;12.65;8.50;;;11.70;99.90;;;;;;5071570;28;20384;-56
2022/09/26 03:32:46;;;;;;;9.48;8.30;;;11.70;99.90;;;;;;5071153;28;20055;-57
2022/09/26 03:35:12;;;;;;;11.82;9.30;;;11.70;99.90;;;;;;5071498;28;20697;-55
2022/09/26 03:37:37;;;;;;;10.38;8.77;;;11.70;99.90;;;;;;5070200;28;20029;-56
2022/09/26 03:40:06;;;;;;;10.70;8.73;;;11.70;99.90;;;;;;5071330;28;20024;-56
2022/09/26 03:42:32;;;;;;;14.05;8.85;;;11.70;99.90;;;;;;5071468;28;20021;-55
2022/09/26 03:44:59;;;;;;;11.32;9.80;;;11.70;99.90;;;;;;5071275;28;20044;-54
2022/09/26 03:47:25;;;;;;;15.73;10.75;;;11.70;99.90;;;;;;5071468;28;20024;-56
2022/09/26 03:49:51;;;;;;;10.43;9.32;;;11.70;99.90;;;;;;5051552;28;20021;-56
2022/09/26 03:52:17;;;;;;;11.38;9.70;;;11.70;99.90;;;;;;5051408;28;20460;-58
2022/09/26 03:54:43;;;;;;;10.27;9.18;;;11.70;99.90;;;;;;5051049;28;20064;-56
2022/09/26 03:57:12;;;;;;;12.90;9.60;;;11.70;99.90;;;;;;5050254;28;20090;-55
2022/09/26 03:59:37;;;;;;;12.57;10.15;;;11.60;99.90;;;;;;5049599;28;20494;-56
2022/09/26 04:02:04;;;;;;;20.95;10.35;;;11.70;99.90;;;;;;5060678;28;20032;-56
2022/09/26 04:04:31;;;;;;;11.68;10.32;;;11.70;99.90;;;;;;5069738;28;20411;-56
2022/09/26 04:06:57;;;;;;;15.32;9.82;;;11.70;99.90;;;;;;5069643;28;20399;-55
2022/09/26 04:09:23;;;;;;;13.10;10.82;;;11.70;99.90;;;;;;5068789;28;20029;-52
2022/09/26 04:11:49;;;;;;;12.57;11.00;;;11.70;99.90;;;;;;5069754;28;20020;-55
2022/09/26 04:14:16;;;;;;;11.15;9.98;;;11.70;99.90;;;;;;5069272;28;20039;-55
2022/09/26 04:16:42;;;;;;;13.68;10.23;;;11.70;99.90;;;;;;5067758;28;20031;-55
2022/09/26 04:19:08;;;;;;;11.75;9.70;;;11.60;99.90;;;;;;5067934;28;20017;-53
2022/09/26 04:21:34;;;;;;;11.13;9.73;;;11.60;99.90;;;;;;5066992;28;20110;-55
2022/09/26 04:24:00;;;;;;;11.13;10.00;;;11.50;99.90;;;;;;5067895;28;20029;-55
2022/09/26 04:26:27;;;;;;;15.32;11.02;;;11.50;99.90;;;;;;5067977;28;20042;-54
2022/09/26 04:28:55;;;;;;;13.32;10.50;;;11.50;99.90;;;;;;5068372;28;20428;-55
2022/09/26 04:31:26;;;;;;;12.82;10.07;;;11.50;99.90;;;;;;5062646;28;20021;-52
2022/09/26 04:33:54;;;;;;;14.43;11.18;;;11.50;99.90;;;;;;5053231;28;20459;-54
2022/09/26 04:36:20;;;;;;;16.77;11.80;;;11.40;99.90;;;;;;5053624;28;20075;-55
2022/09/26 04:38:46;;;;;;;17.92;11.95;;;11.40;99.90;;;;;;5053136;28;20033;-53
2022/09/26 04:41:14;;;;;;;13.90;11.07;;;11.50;99.90;;;;;;5052122;28;20365;-52
2022/09/26 04:43:40;;;;;;;18.17;13.70;;;11.50;99.90;;;;;;5053185;28;20027;-56
2022/09/26 04:46:12;;;;;;;16.67;11.43;;;11.50;99.90;;;;;;5053067;28;20033;-55
2022/09/26 04:48:38;;;;;;;16.30;11.32;;;11.50;99.90;;;;;;5053148;28;20055;-54
2022/09/26 04:51:06;;;;;;;15.52;10.55;;;11.50;99.90;;;;;;5053124;28;20028;-54
2022/09/26 04:53:32;;;;;;;13.52;11.55;;;11.50;99.90;;;;;;5053020;28;20028;-56
2022/09/26 04:55:58;;;;;;;15.18;11.52;;;11.40;99.90;;;;;;5052997;28;20025;-53
2022/09/26 04:58:23;;;;;;;11.40;10.02;;;11.40;99.90;;;;;;5053039;28;20021;-55
2022/09/26 05:00:49;;;;;;;14.05;10.50;;;11.40;99.90;;;;;;5061764;28;20044;-57
2022/09/26 05:03:16;;;;;;;14.85;11.60;;;11.40;99.90;;;;;;5072878;28;20020;-54
2022/09/26 05:05:46;;;;;;;14.40;12.45;;;11.30;99.90;;;;;;5072732;28;20510;-51
2022/09/26 05:08:13;;;;;;;15.45;11.65;;;11.40;99.90;;;;;;5072794;28;20053;-56
2022/09/26 05:10:40;;;;;;;12.90;11.45;;;11.40;99.90;;;;;;5072709;28;20028;-53
2022/09/26 05:13:06;;;;;;;14.40;11.38;;;11.30;99.90;;;;;;5072999;28;20387;-52
2022/09/26 05:15:38;;;;;;;17.38;12.85;;;11.40;99.90;;;;;;5072372;28;20430;-55
2022/09/26 05:18:06;;;;;;;17.17;12.68;;;11.40;99.90;;;;;;5072798;28;20170;-57
2022/09/26 05:20:36;;;;;;;11.88;10.68;;;11.40;99.90;;;;;;5071232;28;20024;-56
2022/09/26 05:23:03;;;;;;;13.10;11.70;;;11.40;99.90;;;;;;5072250;28;20051;-54
2022/09/26 05:28:20;;;;;;;12.60;11.18;;;11.50;99.90;;;;;;5072889;28;20047;-54
2022/09/26 05:30:45;;;;;;;14.43;11.30;;;11.50;99.90;;;;;;5058877;28;20433;-56
2022/09/26 05:33:12;;;;;;;15.13;11.88;;;11.50;99.90;;;;;;5052392;28;20426;-57
2022/09/26 05:35:39;;;;;;;14.35;10.80;;;11.50;99.90;;;;;;5052266;28;20021;-56
2022/09/26 05:38:04;;;;;;;13.63;10.65;;;11.50;99.90;;;;;;5052443;28;20388;-54
2022/09/26 05:43:15;;;;;;;14.88;11.88;;;11.60;99.90;;;;;;5064211;28;20184;-57
2022/09/26 05:45:41;;;;;;;13.90;11.70;;;11.60;99.90;;;;;;5072010;28;20107;-55
2022/09/26 05:48:08;;;;;;;14.02;11.95;;;11.60;99.90;;;;;;5072176;28;20029;-53
2022/09/26 05:50:33;;;;;;;14.73;11.70;;;11.60;99.90;;;;;;5072261;28;20020;-58
2022/09/26 05:53:00;;;;;;;14.25;11.38;;;11.60;99.90;;;;;;5071730;28;20484;-56
2022/09/26 05:55:26;;;;;;;15.20;10.95;;;11.60;99.90;;;;;;5071813;28;20074;-57
2022/09/26 05:57:54;;;;;;;12.15;10.20;;;11.60;99.90;;;;;;5071409;28;20078;-53
2022/09/26 06:00:19;;;;;;;10.63;9.52;;;11.60;99.90;;;;;;5071875;28;20104;-57
2022/09/26 06:02:45;;;;;;;10.07;9.02;;;11.60;99.90;;;;;;5071965;28;20108;-54
2022/09/26 06:05:11;;;;;;;13.20;9.52;;;11.60;99.90;;;;;;5071665;28;20024;-56
2022/09/26 06:07:37;;;;;;;9.98;8.73;;;11.60;99.90;;;;;;5071418;28;20487;-53
2022/09/26 06:10:04;;;;;;;12.98;9.32;;;11.60;99.90;;;;;;5071457;28;20082;-55
2022/09/26 06:12:30;;;;;;;9.75;8.75;;;11.60;99.90;;;;;;5060844;28;20564;-56
2022/09/26 06:14:56;;;;;;;10.88;7.28;;;11.50;99.90;;;;;;5051357;28;20116;-54
2022/09/26 06:17:23;;;;;;;9.00;7.10;;;11.60;99.90;;;;;;5051659;28;20028;-56
2022/09/26 06:19:48;;;;;;;7.68;6.72;;;11.60;99.90;;;;;;5051717;28;20028;-56
2022/09/26 06:22:14;;;;;;;6.97;5.90;;;11.60;99.90;;;;;;5050222;28;20025;-55
2022/09/26 06:24:40;;;;;;;7.97;6.32;;;11.60;99.90;;;;;;5051041;28;20086;-56
2022/09/26 06:27:05;;;;;;;6.63;6.03;;;11.60;99.90;;;;;;5060092;28;20033;-54
2022/09/26 06:29:31;;;;;;;7.80;6.53;;;11.70;99.90;;;;;;5071240;28;20020;-53
2022/09/26 06:31:57;;;;;;;7.10;5.93;;;11.70;99.90;;;;;;5069903;28;20033;-56
2022/09/26 06:34:22;;;;;;;9.00;6.07;;;11.80;99.90;;;;;;5071233;28;20024;-56
2022/09/26 06:36:48;;;;;;;8.10;6.32;;;11.80;99.90;;;;;;5067024;28;20552;-55
2022/09/26 06:39:14;;;;;;;7.00;6.30;;;11.80;99.90;;;;;;5051210;28;20465;-57
2022/09/26 06:41:39;;;;;;;6.70;6.07;;;11.80;99.90;;;;;;5050798;28;20100;-55
2022/09/26 06:44:05;;;;;;;6.53;5.85;;;11.90;99.90;;;;;;5049819;28;20507;-56
2022/09/26 06:46:30;;;;;;;7.93;7.13;;;11.90;99.90;;;;;;5049748;28;20491;-56
2022/09/26 06:48:57;;;;;;;9.00;7.40;;;11.90;99.90;;;;;;5049481;28;20063;-55
2022/09/26 06:51:23;;;;;;;8.82;7.63;;;11.90;99.90;;;;;;5051867;28;20466;-54
2022/09/26 06:53:48;;;;;;;8.27;7.20;;;12.00;99.90;;;;;;5070376;28;20029;-53
2022/09/26 06:56:14;;;;;;;11.55;7.57;;;12.00;99.90;;;;;;5070741;28;20031;-54
2022/09/26 06:58:40;;;;;;;9.13;7.72;;;12.00;99.90;;;;;;5070598;28;20052;-53
2022/09/26 07:01:07;;;;;;;11.13;7.97;;;12.10;99.90;;;;;;5069190;28;20387;-57
2022/09/26 07:03:32;;;;;;;9.70;8.15;;;12.10;99.90;;;;;;5070609;28;20507;-53
2022/09/26 07:05:58;;;;;;;8.60;7.60;;;12.20;99.90;;;;;;5070613;28;20067;-56
2022/09/26 07:08:25;;;;;;;9.95;7.22;;;12.20;99.90;;;;;;5070553;28;20375;-54
2022/09/26 07:10:51;;;;;;;12.65;8.80;;;12.20;99.90;;;;;;5069024;28;20502;-55
2022/09/26 07:13:17;;;;;;;12.45;8.65;;;12.20;99.90;;;;;;5070606;28;20044;-54
2022/09/26 07:15:46;;;;;;;9.98;8.48;;;12.20;99.90;;;;;;5070325;28;20472;-56
2022/09/26 07:18:12;;;;;;;9.25;8.20;;;12.20;99.90;;;;;;5070356;28;20052;-55
2022/09/26 07:20:39;;;;;;;10.55;8.13;;;12.30;99.90;;;;;;5070513;28;20379;-56
2022/09/26 07:23:08;;;;;;;9.05;8.15;;;12.40;99.90;;;;;;5068611;28;20028;-55
2022/09/26 07:25:34;;;;;;;8.35;7.55;;;12.50;99.90;;;;;;5050780;28;20384;-56
2022/09/26 07:28:00;;;;;;;8.68;7.78;;;12.60;99.90;;;;;;5050073;28;20029;-53
2022/09/26 07:30:27;;;;;;;18.60;8.60;;;12.80;99.90;;;;;;5050489;28;20032;-54
2022/09/26 07:33:02;;;;;;;10.27;7.82;;;12.80;99.90;;;;;;5050196;28;20017;-54
2022/09/26 07:35:31;;;;;;;9.57;7.75;;;12.60;99.90;;;;;;5050250;28;20416;-54
2022/09/26 07:37:57;;;;;;;13.13;8.45;;;12.50;99.90;;;;;;5052358;28;20025;-57
2022/09/26 07:40:24;;;;;;;10.45;8.35;;;12.70;99.90;;;;;;5070468;28;20059;-56
2022/09/26 07:42:51;;;;;;;9.63;7.70;;;12.50;99.90;;;;;;5071324;28;20027;-56
2022/09/26 07:50:09;;;;;;;9.55;8.43;;;12.40;99.90;;;;;;5070493;28;20059;-57
2022/09/26 07:50:52;;;;;;;12.07;7.22;;;12.20;99.90;;;;;;5050393;28;20487;-55
2022/09/26 07:53:18;;;;;;;8.32;7.25;;;12.30;99.90;;;;;;5049951;28;20043;-52
2022/09/26 07:56:04;;;;;;;9.27;7.85;;;12.30;99.90;;;;;;5050983;28;20029;-54
2022/09/26 07:58:30;;;;;;;10.10;7.60;;;12.30;99.90;;;;;;5051218;28;20075;-52
2022/09/26 08:00:56;;;;;;;11.80;7.18;;;12.30;99.90;;;;;;5051987;28;20021;-52
2022/09/26 08:03:25;;;;;;;8.60;7.47;;;12.40;99.90;;;;;;5051244;28;20028;-50
2022/09/26 08:05:55;;;;;;;8.65;7.70;;;12.40;99.90;;;;;;5051383;28;20035;-52
2022/09/26 08:08:21;;;;;;;7.82;7.03;;;12.50;99.90;;;;;;5055045;28;20068;-51
2022/09/26 08:10:46;;;;;;;8.48;7.20;;;12.50;99.90;;;;;;5055104;28;20060;-54
2022/09/26 08:13:12;;;;;;;9.15;8.00;;;12.60;99.90;;;;;;5055188;28;20037;-51
2022/09/26 08:15:37;;;;;;;8.40;7.25;;;12.70;99.90;;;;;;5063550;28;20032;-53
2022/09/26 08:18:04;;;;;;;8.85;7.82;;;12.70;99.90;;;;;;5075033;28;20093;-51
2022/09/26 08:20:29;;;;;;;8.38;7.00;;;12.80;99.90;;;;;;5074979;28;20074;-52
2022/09/26 08:22:55;;;;;;;6.82;6.22;;;13.00;99.90;;;;;;5073459;28;20029;-55
2022/09/26 08:25:21;;;;;;;6.63;6.03;;;13.30;99.90;;;;;;5072870;28;20515;-53
2022/09/26 08:27:47;;;;;;;9.30;7.32;;;13.50;99.90;;;;;;5074783;28;20107;-51
2022/09/26 08:30:14;;;;;;;10.05;6.07;;;13.40;99.90;;;;;;5074804;28;20036;-52
2022/09/26 08:32:40;;;;;;;7.88;6.80;;;13.70;99.90;;;;;;5074651;28;20016;-52
2022/09/26 08:35:07;;;;;;;12.50;5.80;;;13.70;99.90;;;;;;5074642;28;20410;-52
2022/09/26 08:37:32;;;;;;;7.10;6.20;;;13.80;99.90;;;;;;5074136;28;20029;-54
2022/09/26 08:39:59;;;;;;;7.03;5.95;;;13.60;99.90;;;;;;5074296;28;20016;-52
2022/09/26 08:42:56;;;;;;;6.68;5.90;;;13.70;99.90;;;;;;5074577;28;20401;-51
2022/09/26 08:49:21;;;;;;;7.78;6.35;;;13.60;99.90;;;;;;5071418;28;20065;-54
2022/09/26 08:51:50;;;;;;;9.45;7.88;;;13.30;99.90;;;;;;5068362;28;20536;-52
2022/09/26 08:54:36;;;;;;;9.95;7.00;;;13.40;99.90;;;;;;5058010;28;20524;-52
2022/09/26 08:57:25;;;;;;;8.98;7.32;;;13.50;99.90;;;;;;5054159;28;20033;-52
2022/09/26 08:59:53;;;;;;;7.00;6.32;;;13.80;99.90;;;;;;5062642;28;20029;-53
2022/09/26 09:02:37;;;;;;;9.23;7.07;;;14.00;99.90;;;;;;5054283;28;20408;-53
2022/09/26 09:05:05;;;;;;;;;;;14.20;99.90;;;;;;5054601;28;20044;-51
2022/09/26 09:07:31;;;;;;;7.50;4.50;;;14.30;99.90;;;;;;5048968;28;19923;-53
2022/09/26 09:10:03;;;;;;;6.20;4.60;;;14.20;99.90;;;;;;5039163;28;20029;-54
2022/09/26 09:13:13;;;;;;;6.13;4.47;;;14.30;99.90;;;;;;5038357;28;20029;-52
2022/09/26 09:16:03;;;;;;;4.03;3.72;;;14.90;99.90;;;;;;5045526;28;20049;-51
2022/09/26 09:18:55;;;;;;;3.28;2.90;;;14.90;99.90;;;;;;5041045;28;20027;-51
2022/09/26 09:21:44;;;;;;;4.35;3.95;;;15.20;99.90;;;;;;5042321;28;20058;-53
2022/09/26 09:24:21;;;;;;;3.08;2.85;;;15.00;99.90;;;;;;5044383;28;20033;-53
2022/09/26 09:27:01;;;;;;;2.85;2.53;;;15.10;99.90;;;;;;5053470;28;20021;-52
2022/09/26 09:29:48;;;;;;;5.82;2.40;;;14.90;99.90;;;;;;5053363;28;20025;-51
2022/09/26 09:32:18;;;;;;;5.05;2.75;;;14.90;99.90;;;;;;5053409;28;20033;-52
2022/09/26 09:34:48;;;;;;;3.85;3.55;;;15.30;99.90;;;;;;5065738;28;20106;-55
2022/09/26 09:37:20;;;;;;;2.60;2.40;;;15.50;99.90;;;;;;5073442;28;20020;-52
2022/09/26 09:39:48;;;;;;;6.95;2.55;;;15.50;99.90;;;;;;5073027;28;20384;-52
2022/09/26 09:42:26;;;;;;;3.60;2.45;;;15.20;99.90;;;;;;5073526;28;20033;-54
2022/09/26 09:45:04;;;;;;;4.45;2.42;;;14.90;99.90;;;;;;5073281;28;20025;-53
2022/09/26 09:47:31;;;;;;;3.70;3.13;;;14.90;99.90;;;;;;5073153;28;20028;-51
2022/09/26 09:49:58;;;;;;;5.85;2.60;;;15.30;99.90;;;;;;5072015;28;20649;-52
2022/09/26 09:52:24;;;;;;;5.20;2.65;;;15.00;99.90;;;;;;5072595;28;20198;-51
2022/09/26 09:55:04;;;;;;;2.65;2.45;;;15.00;99.90;;;;;;5072220;28;20463;-53
2022/09/26 09:57:51;;;;;;;3.15;2.88;;;15.30;99.90;;;;;;5072844;28;20059;-54
2022/09/26 10:00:24;;;;;;;4.35;2.90;;;15.40;99.90;;;;;;5072251;28;20363;-51
2022/09/26 10:03:00;;;;;;;14.43;3.10;;;15.00;99.90;;;;;;5070806;28;20013;-52
2022/09/26 10:05:43;;;;;;;3.58;3.28;;;14.60;99.90;;;;;;5052913;28;20347;-54
2022/09/26 10:08:18;;;;;;;6.05;3.33;;;14.60;99.90;;;;;;5052808;28;20593;-55
2022/09/26 10:11:18;;;;;;;4.15;3.20;;;14.20;99.90;;;;;;5052569;28;20028;-51
2022/09/26 10:13:47;;;;;;;7.50;3.53;;;14.10;99.90;;;;;;5052420;28;20030;-53
2022/09/26 10:16:14;;;;;;;4.47;3.75;;;14.40;99.90;;;;;;5052586;28;20028;-55
2022/09/26 10:18:55;;;;;;;4.88;3.40;;;14.70;99.90;;;;;;5062594;28;20020;-52
2022/09/26 10:21:31;;;;;;;3.58;3.28;;;14.80;99.90;;;;;;5072662;28;20025;-53
2022/09/26 10:23:57;;;;;;;4.63;3.88;;;15.00;99.90;;;;;;5072476;28;20099;-52
2022/09/26 10:26:33;;;;;;;4.30;3.42;;;15.00;99.90;;;;;;5072471;28;20103;-52
2022/09/26 10:29:06;;;;;;;3.53;3.22;;;15.30;99.90;;;;;;5072026;28;21332;-52
2022/09/26 10:31:37;;;;;;;3.65;3.25;;;15.70;99.90;;;;;;5072493;28;20031;-52
2022/09/26 10:34:30;;;;;;;3.42;3.13;;;16.20;99.90;;;;;;5056618;28;20411;-54
2022/09/26 10:36:56;;;;;;;3.28;2.97;;;15.90;99.90;;;;;;5055529;28;20478;-52
2022/09/26 10:42:21;;;;;;;3.08;2.78;;;17.00;99.90;;;;;;5072385;28;20051;-56
2022/09/26 10:44:49;;;;;;;;;;;16.40;99.90;;;;;;5072667;28;20107;-52
2022/09/26 10:47:24;;;;;;;3.10;2.80;;;17.70;99.90;;;;;;5071964;28;20012;-55
2022/09/26 10:50:09;;;;;;;4.00;2.67;;;18.90;99.90;;;;;;5071254;28;20042;-52
2022/09/26 10:52:45;;;;;;;2.90;2.60;;;18.50;99.60;;;;;;5072116;28;20025;-52
2022/09/26 10:55:25;;;;;;;3.08;2.78;;;18.40;99.20;;;;;;5072012;28;20035;-52
2022/09/26 10:57:56;;;;;;;4.82;2.80;;;19.60;97.20;;;;;;5070245;28;20028;-54
2022/09/26 11:00:36;;;;;;;2.22;2.05;;;19.90;97.40;;;;;;5071911;28;20107;-52
2022/09/26 11:03:04;;;;;;;4.03;2.53;;;21.40;96.00;;;;;;5063101;28;20035;-53
2022/09/26 11:05:57;;;;;;;1.60;1.50;;;20.70;94.30;;;;;;5051929;28;20025;-51
2022/09/26 11:08:28;;;;;;;2.20;2.00;;;21.40;93.20;;;;;;5051695;28;20053;-52
2022/09/26 11:10:56;;;;;;;3.33;2.60;;;21.30;92.00;;;;;;5051808;28;20678;-51
2022/09/26 11:13:24;;;;;;;2.70;1.83;;;21.30;92.30;;;;;;5051758;28;20123;-56
2022/09/26 11:16:09;;;;;;;6.55;1.92;;;19.50;94.70;;;;;;5059010;28;20036;-52
2022/09/26 11:18:43;;;;;;;2.58;1.40;;;19.50;93.60;;;;;;5071777;28;20363;-53
2022/09/26 11:21:32;;;;;;;3.35;1.70;;;20.70;92.30;;;;;;5070179;28;20032;-55
2022/09/26 11:23:59;;;;;;;5.15;1.38;;;19.70;90.90;;;;;;5071538;28;20029;-53
2022/09/26 11:26:43;;;;;;;3.45;1.73;;;20.00;91.60;;;;;;5070336;28;20032;-52
2022/09/26 11:29:33;;;;;;;1.67;1.33;;;20.10;92.30;;;;;;5071594;28;20082;-52
2022/09/26 11:31:59;;;;;;;1.10;1.00;;;21.30;91.30;;;;;;5069991;28;20024;-53
2022/09/26 11:34:28;;;;;;;1.08;0.80;;;21.70;91.50;;;;;;5069761;28;20081;-52
2022/09/26 11:37:11;;;;;;;1.25;1.00;;;21.90;89.80;;;;;;5071410;28;20048;-54
2022/09/26 11:39:57;;;;;;;1.70;1.20;;;22.70;87.60;;;;;;5070706;28;20025;-52
2022/09/26 11:42:55;;;;;;;1.85;0.85;;;22.90;85.70;;;;;;5071507;28;20368;-52
2022/09/26 11:45:28;;;;;;;1.40;1.17;;;22.80;82.40;;;;;;5071431;28;20078;-53
2022/09/26 11:48:12;;;;;;;2.00;1.40;;;21.90;84.50;;;;;;5071228;28;20025;-54
2022/09/26 11:51:19;;;;;;;1.90;1.70;;;20.50;86.90;;;;;;5070912;28;20032;-55
2022/09/26 11:53:57;;;;;;;4.15;1.50;;;18.90;90.90;;;;;;5070383;28;20036;-51
2022/09/26 11:56:37;;;;;;;1.95;1.48;;;18.00;92.90;;;;;;5069219;28;20021;-53
2022/09/26 11:59:39;;;;;;;2.65;1.48;;;17.50;93.70;;;;;;5070824;28;20409;-52
2022/09/26 12:02:14;;;;;;;2.03;1.80;;;17.10;95.10;;;;;;5071228;28;20055;-54
2022/09/26 12:05:01;;;;;;;12.13;1.52;;;17.00;95.40;;;;;;5058698;28;20025;-52
2022/09/26 12:07:42;;;;;;;1.13;1.10;;;18.70;95.70;;;;;;5048038;28;20057;-52
2022/09/26 12:10:41;;;;;;;1.83;1.10;;;20.60;93.30;;;;;;5050878;28;20041;-54
2022/09/26 12:13:21;;;;;;;1.35;1.20;;;23.70;84.60;;;;;;5051415;28;20056;-56
2022/09/26 12:16:08;;;;;;;1.00;0.90;;;26.20;77.50;;;;;;5070643;28;20032;-55
2022/09/26 12:18:55;;;;;;;2.08;1.02;;;26.80;70.90;;;;;;5071006;28;20499;-55
2022/09/26 12:21:21;;;;;;;2.00;1.27;;;27.40;68.60;;;;;;5070921;28;20357;-52
2022/09/26 12:23:56;;;;;;;1.15;0.93;;;27.30;64.30;;;;;;5070821;28;20066;-55
2022/09/26 12:26:33;;;;;;;1.38;0.85;;;28.30;61.80;;;;;;5070614;28;20025;-53
2022/09/26 12:29:20;;;;;;;3.42;1.02;;;28.60;63.40;;;;;;5070668;28;20024;-51
2022/09/26 12:32:00;;;;;;;1.52;1.33;;;27.50;58.50;;;;;;5070825;28;20028;-51
2022/09/26 12:34:54;;;;;;;2.00;1.63;;;27.90;57.20;;;;;;5070925;28;20031;-53
2022/09/26 12:37:57;;;;;;;0.80;0.80;;;26.40;58.50;;;;;;5071074;28;20020;-52
2022/09/26 12:40:44;;;;;;;1.02;0.85;;;27.90;58.00;;;;;;5071016;28;20032;-53
2022/09/26 12:43:22;;;;;;;1.17;0.90;;;29.30;55.30;;;;;;5065655;28;20044;-55
2022/09/26 12:46:26;;;;;;;0.95;0.77;;;27.60;55.70;;;;;;5050715;28;20104;-54
2022/09/26 12:49:10;;;;;;;1.92;1.27;;;27.70;54.50;;;;;;5067913;28;20032;-56
2022/09/26 12:51:50;;;;;;;1.15;0.80;;;26.10;56.00;;;;;;5069531;28;20044;-54
2022/09/26 12:54:47;;;;;;;1.20;0.82;;;27.50;54.00;;;;;;5059893;28;20033;-54
2022/09/26 12:57:27;;;;;;;1.95;0.93;;;26.60;53.80;;;;;;5054342;28;20459;-55
2022/09/26 13:00:15;;;;;;;1.95;1.30;;;27.20;56.80;;;;;;5055449;28;20378;-55
2022/09/26 13:03:25;;;;;;;0.80;0.80;;;27.70;55.00;;;;;;5067667;28;20059;-55
2022/09/26 13:06:08;;;;;;;0.82;0.70;;;31.00;49.70;;;;;;5071449;28;20384;-54
2022/09/26 13:09:07;;;;;;;1.10;1.00;;;31.60;48.50;;;;;;5071445;28;20083;-52
2022/09/26 13:11:46;;;;;;;1.23;1.02;;;29.20;49.40;;;;;;5073755;28;20430;-52
2022/09/26 13:14:28;;;;;;;0.80;0.65;;;26.40;53.70;;;;;;5074092;28;20114;-56
2022/09/26 13:17:12;;;;;;;1.10;0.80;;;28.30;52.80;;;;;;5073859;28;20491;-52
2022/09/26 13:19:53;;;;;;;3.13;0.50;;;29.70;52.30;;;;;;5061401;28;20021;-55
2022/09/26 13:22:26;;;;;;;0.68;0.68;;;28.90;48.00;;;;;;5052310;28;20029;-52
2022/09/26 13:25:06;;;;;;;0.70;0.63;;;29.10;51.20;;;;;;5053655;28;20040;-51
2022/09/26 13:27:56;;;;;;;4.38;0.50;;;29.20;49.40;;;;;;5053750;28;20542;-51
2022/09/26 13:30:34;;;;;;;0.52;0.50;;;29.90;48.90;;;;;;5053468;28;20029;-54